createdAt,value
2023-09-04T00:02:26.291Z,98657.38
2023-09-04T00:07:31.070Z,98661.47
2023-09-04T00:12:37.313Z,98655.53
2023-09-04T00:17:40.589Z,98644.88
2023-09-04T00:22:45.205Z,98644.22
2023-09-04T00:27:48.368Z,98662.31
2023-09-04T00:32:51.618Z,98656.06
2023-09-04T00:37:56.204Z,98659.78
2023-09-04T00:42:59.340Z,98663.69
2023-09-04T00:48:02.846Z,98656.88
2023-09-04T00:53:09.048Z,98653.84
2023-09-04T00:58:12.267Z,98669.94
2023-09-04T01:03:15.432Z,98657.84
2023-09-04T01:08:19.978Z,98660.69
2023-09-04T01:13:25.545Z,98666.06
2023-09-04T01:18:29.766Z,98667.63
2023-09-04T01:23:35.313Z,98664.03
2023-09-04T01:28:42.236Z,98667.25
2023-09-04T01:33:49.370Z,98668.94
2023-09-04T01:38:54.438Z,98675.28
2023-09-04T01:43:57.766Z,98671.31
2023-09-04T01:49:00.974Z,98674.13
2023-09-04T01:54:06.073Z,98671.59
2023-09-04T01:59:09.629Z,98668.72
2023-09-04T02:04:12.783Z,98672.34
2023-09-04T02:09:17.295Z,98662.88
2023-09-04T02:14:20.994Z,98664.59
2023-09-04T02:19:24.099Z,98644.53
2023-09-04T02:24:28.709Z,98641.41
2023-09-04T02:29:32.262Z,98640.91
2023-09-04T02:34:35.384Z,98629.59
2023-09-04T02:39:40.592Z,98626.38
2023-09-04T02:44:43.975Z,98618.81
2023-09-04T02:49:47.108Z,98617.47
2023-09-04T02:54:51.662Z,98615.00
2023-09-04T02:59:54.987Z,98615.31
2023-09-04T03:04:58.976Z,98607.44
2023-09-04T03:10:03.438Z,98610.09
2023-09-04T03:15:08.735Z,98620.19
2023-09-04T03:20:20.708Z,98614.41
2023-09-04T03:25:27.935Z,98601.84
2023-09-04T03:30:32.037Z,98598.28
2023-09-04T03:35:35.390Z,98595.66
2023-09-04T03:40:40.313Z,98605.72
2023-09-04T03:45:43.391Z,98601.38
2023-09-04T03:50:46.515Z,98602.22
2023-09-04T03:55:52.252Z,98606.66
2023-09-04T04:00:58.434Z,98597.13
2023-09-04T04:06:12.403Z,98603.47
2023-09-04T04:11:16.877Z,98601.25
2023-09-04T04:16:19.993Z,98608.63
2023-09-04T04:21:23.205Z,98617.59
2023-09-04T04:26:27.806Z,98618.53
2023-09-04T04:31:31.451Z,98622.88
2023-09-04T04:36:34.834Z,98623.72
2023-09-04T04:41:39.455Z,98621.56
2023-09-04T04:46:42.996Z,98616.19
2023-09-04T04:51:46.659Z,98611.66
2023-09-04T04:56:51.901Z,98619.50
2023-09-04T05:01:57.287Z,98612.31
2023-09-04T05:07:00.681Z,98606.28
2023-09-04T05:12:05.696Z,98602.69
2023-09-04T05:17:09.534Z,98610.16
2023-09-04T05:22:13.803Z,98604.78
2023-09-04T05:27:18.540Z,98602.34
2023-09-04T05:32:21.678Z,98592.81
2023-09-04T05:37:25.047Z,98598.22
2023-09-04T05:42:29.598Z,98613.41
2023-09-04T05:47:32.834Z,98615.88
2023-09-04T05:52:36.004Z,98624.03
2023-09-04T05:57:40.644Z,98640.66
2023-09-04T06:02:43.931Z,98629.22
2023-09-04T06:07:47.055Z,98624.31
2023-09-04T06:12:53.855Z,98626.66
2023-09-04T06:17:57.340Z,98624.50
2023-09-04T06:23:00.604Z,98635.09
2023-09-04T06:28:06.018Z,98638.94
2023-09-04T06:33:10.158Z,98634.63
2023-09-04T06:38:15.749Z,98643.56
2023-09-04T06:43:20.292Z,98644.03
2023-09-04T06:48:24.554Z,98641.63
2023-09-04T06:53:28.656Z,98645.31
2023-09-04T06:58:33.360Z,98653.28
2023-09-04T07:03:36.770Z,98659.41
2023-09-04T07:08:40.020Z,98656.31
2023-09-04T07:13:44.680Z,98650.91
2023-09-04T07:18:47.938Z,98654.34
2023-09-04T07:23:51.151Z,98659.38
2023-09-04T07:28:56.197Z,98654.03
2023-09-04T07:34:00.387Z,98644.22
2023-09-04T07:39:03.644Z,98645.56
2023-09-04T07:44:08.536Z,98639.78
2023-09-04T07:49:11.752Z,98632.94
2023-09-04T07:54:15.016Z,98633.63
2023-09-04T07:59:19.818Z,98623.91
2023-09-04T08:04:23.109Z,98624.13
2023-09-04T08:09:26.388Z,98627.56
2023-09-04T08:14:37.164Z,98627.97
2023-09-04T08:19:40.475Z,98637.63
2023-09-04T08:24:43.690Z,98647.41
2023-09-04T08:29:48.595Z,98638.34
2023-09-04T08:34:52.123Z,98628.56
2023-09-04T08:39:55.393Z,98622.88
2023-09-04T08:45:00.248Z,98618.78
2023-09-04T08:50:04.741Z,98620.16
2023-09-04T08:55:08.336Z,98626.25
2023-09-04T09:00:14.412Z,98618.13
2023-09-04T09:05:19.584Z,98608.09
2023-09-04T09:10:23.257Z,98607.25
2023-09-04T09:15:28.288Z,98598.03
2023-09-04T09:20:32.825Z,98591.91
2023-09-04T09:25:37.456Z,98588.91
2023-09-04T09:30:42.845Z,98583.44
2023-09-04T09:35:46.494Z,98573.81
2023-09-04T09:40:49.758Z,98581.78
2023-09-04T09:45:54.579Z,98573.44
2023-09-04T09:50:57.812Z,98557.94
2023-09-04T09:56:01.413Z,98557.66
2023-09-04T10:01:06.615Z,98548.00
2023-09-04T10:06:11.158Z,98545.13
2023-09-04T10:11:16.189Z,98534.81
2023-09-04T10:16:29.585Z,98538.22
2023-09-04T10:21:35.633Z,98535.19
2023-09-04T10:26:44.483Z,98535.28
2023-09-04T10:31:50.279Z,98525.59
2023-09-04T10:36:53.860Z,98521.13
2023-09-04T10:41:59.404Z,98506.97
2023-09-04T10:47:04.265Z,98511.16
2023-09-04T10:52:07.977Z,98501.19
2023-09-04T10:57:14.320Z,98488.69
2023-09-04T11:02:30.291Z,98479.31
2023-09-04T11:07:35.439Z,98487.19
2023-09-04T11:12:39.882Z,98484.69
2023-09-04T11:17:47.380Z,98476.47
2023-09-04T11:22:50.949Z,98470.94
2023-09-04T11:27:54.364Z,98472.03
2023-09-04T11:33:01.084Z,98469.81
2023-09-04T11:38:24.641Z,98461.19
2023-09-04T11:43:29.554Z,98462.25
2023-09-04T11:48:34.464Z,98458.72
2023-09-04T11:53:38.523Z,98460.91
2023-09-04T11:58:42.018Z,98439.25
2023-09-04T12:03:47.606Z,98438.19
2023-09-04T12:08:51.038Z,98438.91
2023-09-04T12:13:54.464Z,98426.88
2023-09-04T12:18:59.184Z,98424.44
2023-09-04T12:24:02.428Z,98421.84
2023-09-04T12:29:05.885Z,98424.81
2023-09-04T12:34:10.965Z,98426.59
2023-09-04T12:39:14.118Z,98413.84
2023-09-04T12:44:17.542Z,98399.13
2023-09-04T12:49:24.031Z,98402.28
2023-09-04T12:54:27.451Z,98399.56
2023-09-04T12:59:30.755Z,98400.94
2023-09-04T13:04:35.544Z,98389.75
2023-09-04T13:09:39.246Z,98389.00
2023-09-04T13:14:42.695Z,98389.38
2023-09-04T13:19:47.736Z,98393.25
2023-09-04T13:24:51.557Z,98377.53
2023-09-04T13:29:55.167Z,98373.50
2023-09-04T13:35:00.008Z,98367.97
2023-09-04T13:40:04.838Z,98359.22
2023-09-04T13:45:08.736Z,98350.22
2023-09-04T13:50:13.627Z,98353.94
2023-09-04T13:55:17.183Z,98333.97
2023-09-04T14:00:21.987Z,98337.09
2023-09-04T14:05:30.421Z,98337.47
2023-09-04T14:10:34.562Z,98328.09
2023-09-04T14:15:39.893Z,98333.19
2023-09-04T14:20:45.531Z,98331.25
2023-09-04T14:25:53.841Z,98332.16
2023-09-04T14:30:57.409Z,98328.38
2023-09-04T14:36:02.860Z,98330.03
2023-09-04T14:41:14.995Z,98333.00
2023-09-04T14:46:20.986Z,98330.06
2023-09-04T14:51:25.774Z,98335.44
2023-09-04T14:56:29.128Z,98329.00
2023-09-04T15:01:32.796Z,98323.44
2023-09-04T15:06:39.709Z,98315.63
2023-09-04T15:11:43.016Z,98307.84
2023-09-04T15:16:46.542Z,98298.34
2023-09-04T15:21:51.264Z,98296.28
2023-09-04T15:26:54.585Z,98305.31
2023-09-04T15:31:57.899Z,98293.72
2023-09-04T15:37:02.714Z,98285.66
2023-09-04T15:42:07.324Z,98283.22
2023-09-04T15:47:10.891Z,98284.25
2023-09-04T15:52:15.500Z,98268.75
2023-09-04T15:57:18.841Z,98266.03
2023-09-04T16:02:22.203Z,98268.94
2023-09-04T16:07:27.139Z,98270.31
2023-09-04T16:12:30.466Z,98266.91
2023-09-04T16:17:33.864Z,98258.41
2023-09-04T16:22:38.717Z,98267.94
2023-09-04T16:27:41.957Z,98266.75
2023-09-04T16:32:45.344Z,98264.66
2023-09-04T16:37:49.976Z,98271.34
2023-09-04T16:42:53.144Z,98271.81
2023-09-04T16:47:56.681Z,98277.94
2023-09-04T16:53:01.640Z,98274.56
2023-09-04T16:58:05.438Z,98270.97
2023-09-04T17:03:08.999Z,98272.06
2023-09-04T17:08:13.644Z,98265.22
2023-09-04T17:13:17.158Z,98262.91
2023-09-04T17:18:20.714Z,98271.94
2023-09-04T17:23:25.487Z,98272.97
2023-09-04T17:28:28.971Z,98276.19
2023-09-04T17:33:32.185Z,98271.22
2023-09-04T17:38:37.448Z,98278.63
2023-09-04T17:43:41.284Z,98270.16
2023-09-04T17:48:44.719Z,98271.97
2023-09-04T17:53:49.587Z,98270.56
2023-09-04T17:58:53.116Z,98271.91
2023-09-04T18:03:56.474Z,98273.56
2023-09-04T18:09:01.390Z,98289.25
2023-09-04T18:14:04.910Z,98279.47
2023-09-04T18:19:08.072Z,98282.16
2023-09-04T18:24:13.047Z,98280.13
2023-09-04T18:29:16.547Z,98279.28
2023-09-04T18:34:20.218Z,98285.78
2023-09-04T18:39:24.953Z,98289.84
2023-09-04T18:44:28.430Z,98287.59
2023-09-04T18:49:32.447Z,98288.78
2023-09-04T18:54:37.080Z,98294.03
2023-09-04T18:59:40.520Z,98294.19
2023-09-04T19:04:44.070Z,98291.50
2023-09-04T19:09:52.710Z,98291.25
2023-09-04T19:14:56.342Z,98291.81
2023-09-04T19:19:59.935Z,98297.09
2023-09-04T19:25:05.252Z,98293.69
2023-09-04T19:30:11.015Z,98301.03
2023-09-04T19:35:14.559Z,98307.78
2023-09-04T19:40:19.460Z,98305.38
2023-09-04T19:45:23.840Z,98309.72
2023-09-04T19:50:27.780Z,98309.44
2023-09-04T19:55:33.317Z,98313.19
2023-09-04T20:00:36.722Z,98315.41
2023-09-04T20:05:39.972Z,98318.09
2023-09-04T20:10:44.707Z,98314.25
2023-09-04T20:15:48.079Z,98323.38
2023-09-04T20:20:52.341Z,98316.28
2023-09-04T20:25:57.186Z,98320.75
2023-09-04T20:31:00.607Z,98321.25
2023-09-04T20:36:04.460Z,98318.00
2023-09-04T20:41:08.975Z,98312.50
2023-09-04T20:46:12.286Z,98311.91
2023-09-04T20:51:15.664Z,98304.56
2023-09-04T20:56:20.289Z,98300.06
2023-09-04T21:01:23.525Z,98297.03
2023-09-04T21:06:27.044Z,98290.59
2023-09-04T21:11:30.536Z,98294.09
2023-09-04T21:16:51.060Z,98291.13
2023-09-04T21:22:11.531Z,98293.56
2023-09-04T21:27:33.585Z,98286.81
2023-09-04T21:32:54.684Z,98286.47
2023-09-04T21:38:15.503Z,98288.66
2023-09-04T21:43:37.836Z,98284.47
2023-09-04T21:48:58.310Z,98279.91
2023-09-04T21:54:19.448Z,98287.44
2023-09-04T21:59:41.423Z,98285.25
2023-09-04T22:05:02.402Z,98285.66
2023-09-04T22:10:23.273Z,98287.41
2023-09-04T22:15:45.061Z,98292.38
2023-09-04T22:21:05.465Z,98293.97
2023-09-04T22:26:26.371Z,98291.56
2023-09-04T22:31:48.553Z,98284.56
2023-09-04T22:37:09.208Z,98289.88
2023-09-04T22:42:29.654Z,98276.31
2023-09-04T22:47:51.832Z,98273.31
2023-09-04T22:53:12.264Z,98270.06
2023-09-04T22:58:32.691Z,98262.47
2023-09-04T23:03:56.917Z,98263.03
2023-09-04T23:09:17.958Z,98256.38
2023-09-04T23:14:38.805Z,98258.25
2023-09-04T23:20:01.152Z,98252.56
2023-09-04T23:25:05.518Z,98255.72
2023-09-04T23:30:10.171Z,98253.28
2023-09-04T23:35:29.828Z,98254.63
2023-09-04T23:40:50.541Z,98252.44
2023-09-04T23:45:53.864Z,98253.16
2023-09-04T23:50:58.719Z,98262.97
2023-09-04T23:56:06.425Z,98248.09
